sensor_id;sensor_type;location;lat;lon;timestamp;P1;durP1;ratioP1;P2;durP2;ratioP2
58472;SDS011;44775;51.564;5.460;2022-08-23T00:01:55;15.13;;;10.77;;
58472;SDS011;44775;51.564;5.460;2022-08-23T00:04:23;16.20;;;11.65;;
58472;SDS011;44775;51.564;5.460;2022-08-23T00:06:51;18.88;;;11.73;;
58472;SDS011;44775;51.564;5.460;2022-08-23T00:09:19;19.10;;;12.05;;
58472;SDS011;44775;51.564;5.460;2022-08-23T00:14:24;15.52;;;11.43;;
58472;SDS011;44775;51.564;5.460;2022-08-23T00:16:52;18.00;;;12.45;;
58472;SDS011;44775;51.564;5.460;2022-08-23T00:19:19;17.73;;;12.20;;
58472;SDS011;44775;51.564;5.460;2022-08-23T00:21:45;17.92;;;10.90;;
58472;SDS011;44775;51.564;5.460;2022-08-23T00:24:12;15.75;;;11.32;;
58472;SDS011;44775;51.564;5.460;2022-08-23T00:29:30;14.80;;;11.82;;
58472;SDS011;44775;51.564;5.460;2022-08-23T00:32:05;18.25;;;11.57;;
58472;SDS011;44775;51.564;5.460;2022-08-23T00:34:32;18.88;;;12.15;;
58472;SDS011;44775;51.564;5.460;2022-08-23T00:36:58;20.20;;;12.98;;
58472;SDS011;44775;51.564;5.460;2022-08-23T00:39:24;19.42;;;12.77;;
58472;SDS011;44775;51.564;5.460;2022-08-23T00:41:50;18.35;;;11.45;;
58472;SDS011;44775;51.564;5.460;2022-08-23T00:44:23;17.35;;;12.07;;
58472;SDS011;44775;51.564;5.460;2022-08-23T00:47:14;19.30;;;12.45;;
58472;SDS011;44775;51.564;5.460;2022-08-23T00:50:06;17.63;;;12.63;;
58472;SDS011;44775;51.564;5.460;2022-08-23T00:55:41;16.65;;;12.32;;
58472;SDS011;44775;51.564;5.460;2022-08-23T00:58:10;17.23;;;11.63;;
58472;SDS011;44775;51.564;5.460;2022-08-23T01:00:37;15.67;;;11.70;;
58472;SDS011;44775;51.564;5.460;2022-08-23T01:03:04;16.67;;;12.40;;
58472;SDS011;44775;51.564;5.460;2022-08-23T01:05:40;15.38;;;12.60;;
58472;SDS011;44775;51.564;5.460;2022-08-23T01:08:10;20.63;;;12.13;;
58472;SDS011;44775;51.564;5.460;2022-08-23T01:10:38;15.95;;;12.10;;
58472;SDS011;44775;51.564;5.460;2022-08-23T01:13:11;20.42;;;13.23;;
58472;SDS011;44775;51.564;5.460;2022-08-23T01:15:40;15.65;;;12.68;;
58472;SDS011;44775;51.564;5.460;2022-08-23T01:18:10;18.48;;;13.32;;
58472;SDS011;44775;51.564;5.460;2022-08-23T01:24:00;17.02;;;13.00;;
58472;SDS011;44775;51.564;5.460;2022-08-23T01:26:27;18.20;;;13.38;;
58472;SDS011;44775;51.564;5.460;2022-08-23T01:28:59;19.58;;;13.18;;
58472;SDS011;44775;51.564;5.460;2022-08-23T01:31:26;17.65;;;13.07;;
58472;SDS011;44775;51.564;5.460;2022-08-23T01:33:56;17.58;;;12.98;;
58472;SDS011;44775;51.564;5.460;2022-08-23T01:36:25;17.83;;;12.80;;
58472;SDS011;44775;51.564;5.460;2022-08-23T01:38:51;24.23;;;13.02;;
58472;SDS011;44775;51.564;5.460;2022-08-23T01:41:17;19.08;;;13.30;;
58472;SDS011;44775;51.564;5.460;2022-08-23T01:43:43;18.27;;;12.63;;
58472;SDS011;44775;51.564;5.460;2022-08-23T01:46:10;18.63;;;11.48;;
58472;SDS011;44775;51.564;5.460;2022-08-23T01:48:44;14.95;;;11.50;;
58472;SDS011;44775;51.564;5.460;2022-08-23T01:51:11;15.27;;;11.43;;
58472;SDS011;44775;51.564;5.460;2022-08-23T01:53:38;17.92;;;11.32;;
58472;SDS011;44775;51.564;5.460;2022-08-23T01:56:04;15.35;;;11.23;;
58472;SDS011;44775;51.564;5.460;2022-08-23T01:58:31;14.55;;;11.18;;
58472;SDS011;44775;51.564;5.460;2022-08-23T02:00:57;15.60;;;11.27;;
58472;SDS011;44775;51.564;5.460;2022-08-23T02:03:22;15.68;;;11.23;;
58472;SDS011;44775;51.564;5.460;2022-08-23T02:05:48;22.95;;;12.30;;
58472;SDS011;44775;51.564;5.460;2022-08-23T02:08:14;17.90;;;12.80;;
58472;SDS011;44775;51.564;5.460;2022-08-23T02:10:58;17.50;;;12.98;;
58472;SDS011;44775;51.564;5.460;2022-08-23T02:13:24;20.15;;;13.73;;
58472;SDS011;44775;51.564;5.460;2022-08-23T02:15:50;21.85;;;14.32;;
58472;SDS011;44775;51.564;5.460;2022-08-23T02:18:17;17.75;;;13.98;;
58472;SDS011;44775;51.564;5.460;2022-08-23T02:20:45;21.75;;;13.32;;
58472;SDS011;44775;51.564;5.460;2022-08-23T02:23:11;17.52;;;14.02;;
58472;SDS011;44775;51.564;5.460;2022-08-23T02:25:37;15.30;;;13.45;;
58472;SDS011;44775;51.564;5.460;2022-08-23T02:28:04;21.20;;;14.07;;
58472;SDS011;44775;51.564;5.460;2022-08-23T02:30:30;19.50;;;15.20;;
58472;SDS011;44775;51.564;5.460;2022-08-23T02:32:55;18.92;;;14.35;;
58472;SDS011;44775;51.564;5.460;2022-08-23T02:35:21;25.92;;;14.60;;
58472;SDS011;44775;51.564;5.460;2022-08-23T02:37:47;18.33;;;13.32;;
58472;SDS011;44775;51.564;5.460;2022-08-23T02:40:13;17.75;;;13.77;;
58472;SDS011;44775;51.564;5.460;2022-08-23T02:42:38;19.10;;;14.43;;
58472;SDS011;44775;51.564;5.460;2022-08-23T02:45:04;17.25;;;13.35;;
58472;SDS011;44775;51.564;5.460;2022-08-23T02:47:32;18.70;;;14.27;;
58472;SDS011;44775;51.564;5.460;2022-08-23T02:50:01;17.80;;;13.77;;
58472;SDS011;44775;51.564;5.460;2022-08-23T02:52:31;19.27;;;13.23;;
58472;SDS011;44775;51.564;5.460;2022-08-23T02:54:57;22.73;;;13.90;;
58472;SDS011;44775;51.564;5.460;2022-08-23T02:57:22;18.55;;;13.70;;
58472;SDS011;44775;51.564;5.460;2022-08-23T02:59:48;16.60;;;13.07;;
58472;SDS011;44775;51.564;5.460;2022-08-23T03:02:14;18.08;;;13.35;;
58472;SDS011;44775;51.564;5.460;2022-08-23T03:04:40;17.00;;;12.98;;
58472;SDS011;44775;51.564;5.460;2022-08-23T03:07:06;19.67;;;13.43;;
58472;SDS011;44775;51.564;5.460;2022-08-23T03:09:31;20.88;;;13.32;;
58472;SDS011;44775;51.564;5.460;2022-08-23T03:11:57;20.25;;;13.80;;
58472;SDS011;44775;51.564;5.460;2022-08-23T03:14:22;17.73;;;12.88;;
58472;SDS011;44775;51.564;5.460;2022-08-23T03:16:49;19.52;;;13.77;;
58472;SDS011;44775;51.564;5.460;2022-08-23T03:19:14;19.27;;;13.70;;
58472;SDS011;44775;51.564;5.460;2022-08-23T03:21:40;19.38;;;14.02;;
58472;SDS011;44775;51.564;5.460;2022-08-23T03:24:07;15.90;;;13.40;;
58472;SDS011;44775;51.564;5.460;2022-08-23T03:26:32;23.13;;;13.80;;
58472;SDS011;44775;51.564;5.460;2022-08-23T03:28:58;18.38;;;13.32;;
58472;SDS011;44775;51.564;5.460;2022-08-23T03:31:24;17.15;;;14.07;;
58472;SDS011;44775;51.564;5.460;2022-08-23T03:33:50;18.15;;;13.73;;
58472;SDS011;44775;51.564;5.460;2022-08-23T03:36:16;19.33;;;12.63;;
58472;SDS011;44775;51.564;5.460;2022-08-23T03:38:43;20.27;;;13.38;;
58472;SDS011;44775;51.564;5.460;2022-08-23T03:41:09;17.42;;;13.13;;
58472;SDS011;44775;51.564;5.460;2022-08-23T03:43:35;20.15;;;12.48;;
58472;SDS011;44775;51.564;5.460;2022-08-23T03:46:01;22.35;;;12.43;;
58472;SDS011;44775;51.564;5.460;2022-08-23T03:48:26;16.20;;;12.63;;
58472;SDS011;44775;51.564;5.460;2022-08-23T03:50:52;17.15;;;12.98;;
58472;SDS011;44775;51.564;5.460;2022-08-23T03:53:18;19.25;;;12.93;;
58472;SDS011;44775;51.564;5.460;2022-08-23T03:55:43;18.98;;;12.90;;
58472;SDS011;44775;51.564;5.460;2022-08-23T03:58:09;17.25;;;13.10;;
58472;SDS011;44775;51.564;5.460;2022-08-23T04:00:35;26.23;;;13.90;;
58472;SDS011;44775;51.564;5.460;2022-08-23T04:03:01;19.17;;;14.07;;
58472;SDS011;44775;51.564;5.460;2022-08-23T04:05:26;17.98;;;13.57;;
58472;SDS011;44775;51.564;5.460;2022-08-23T04:07:52;20.13;;;13.70;;
58472;SDS011;44775;51.564;5.460;2022-08-23T04:10:19;22.83;;;14.40;;
58472;SDS011;44775;51.564;5.460;2022-08-23T04:12:45;19.33;;;13.75;;
58472;SDS011;44775;51.564;5.460;2022-08-23T04:15:10;17.80;;;13.80;;
58472;SDS011;44775;51.564;5.460;2022-08-23T04:17:37;18.98;;;12.85;;
58472;SDS011;44775;51.564;5.460;2022-08-23T04:20:04;18.63;;;13.48;;
58472;SDS011;44775;51.564;5.460;2022-08-23T04:22:30;17.88;;;13.57;;
58472;SDS011;44775;51.564;5.460;2022-08-23T04:24:57;20.55;;;13.73;;
58472;SDS011;44775;51.564;5.460;2022-08-23T04:27:23;14.88;;;13.35;;
58472;SDS011;44775;51.564;5.460;2022-08-23T04:29:48;17.65;;;13.82;;
58472;SDS011;44775;51.564;5.460;2022-08-23T04:32:14;16.98;;;13.65;;
58472;SDS011;44775;51.564;5.460;2022-08-23T04:34:40;17.50;;;14.02;;
58472;SDS011;44775;51.564;5.460;2022-08-23T04:37:07;22.33;;;14.55;;
58472;SDS011;44775;51.564;5.460;2022-08-23T04:39:34;20.45;;;13.98;;
58472;SDS011;44775;51.564;5.460;2022-08-23T04:42:19;17.08;;;14.75;;
58472;SDS011;44775;51.564;5.460;2022-08-23T04:44:47;20.52;;;14.88;;
58472;SDS011;44775;51.564;5.460;2022-08-23T04:47:12;20.65;;;15.25;;
58472;SDS011;44775;51.564;5.460;2022-08-23T04:49:38;19.27;;;14.60;;
58472;SDS011;44775;51.564;5.460;2022-08-23T04:52:03;19.05;;;14.30;;
58472;SDS011;44775;51.564;5.460;2022-08-23T04:54:29;19.67;;;14.90;;
58472;SDS011;44775;51.564;5.460;2022-08-23T04:56:55;19.83;;;14.88;;
58472;SDS011;44775;51.564;5.460;2022-08-23T04:59:21;18.48;;;14.20;;
58472;SDS011;44775;51.564;5.460;2022-08-23T05:01:47;19.83;;;14.00;;
58472;SDS011;44775;51.564;5.460;2022-08-23T05:04:13;22.10;;;14.75;;
58472;SDS011;44775;51.564;5.460;2022-08-23T05:06:39;19.73;;;15.25;;
58472;SDS011;44775;51.564;5.460;2022-08-23T05:09:05;21.40;;;15.05;;
58472;SDS011;44775;51.564;5.460;2022-08-23T05:11:30;20.35;;;14.10;;
58472;SDS011;44775;51.564;5.460;2022-08-23T05:13:56;23.27;;;15.23;;
58472;SDS011;44775;51.564;5.460;2022-08-23T05:16:21;18.67;;;14.23;;
58472;SDS011;44775;51.564;5.460;2022-08-23T05:18:47;22.30;;;14.63;;
58472;SDS011;44775;51.564;5.460;2022-08-23T05:21:14;17.85;;;14.27;;
58472;SDS011;44775;51.564;5.460;2022-08-23T05:23:41;19.30;;;14.07;;
58472;SDS011;44775;51.564;5.460;2022-08-23T05:26:06;19.80;;;13.88;;
58472;SDS011;44775;51.564;5.460;2022-08-23T05:28:32;20.15;;;14.45;;
58472;SDS011;44775;51.564;5.460;2022-08-23T05:31:00;21.60;;;14.23;;
58472;SDS011;44775;51.564;5.460;2022-08-23T05:33:28;20.73;;;14.30;;
58472;SDS011;44775;51.564;5.460;2022-08-23T05:35:54;18.58;;;14.32;;
58472;SDS011;44775;51.564;5.460;2022-08-23T05:38:20;20.05;;;14.77;;
58472;SDS011;44775;51.564;5.460;2022-08-23T05:40:49;22.63;;;15.43;;
58472;SDS011;44775;51.564;5.460;2022-08-23T05:43:17;17.65;;;14.52;;
58472;SDS011;44775;51.564;5.460;2022-08-23T05:45:43;20.85;;;14.60;;
58472;SDS011;44775;51.564;5.460;2022-08-23T05:48:08;19.85;;;14.90;;
58472;SDS011;44775;51.564;5.460;2022-08-23T05:50:35;19.75;;;15.10;;
58472;SDS011;44775;51.564;5.460;2022-08-23T05:53:01;19.27;;;15.25;;
58472;SDS011;44775;51.564;5.460;2022-08-23T05:55:26;19.33;;;15.48;;
58472;SDS011;44775;51.564;5.460;2022-08-23T05:57:52;23.52;;;16.38;;
58472;SDS011;44775;51.564;5.460;2022-08-23T06:00:17;30.00;;;16.90;;
58472;SDS011;44775;51.564;5.460;2022-08-23T06:02:43;25.52;;;16.02;;
58472;SDS011;44775;51.564;5.460;2022-08-23T06:05:09;25.88;;;16.83;;
58472;SDS011;44775;51.564;5.460;2022-08-23T06:07:35;25.77;;;18.75;;
58472;SDS011;44775;51.564;5.460;2022-08-23T06:10:01;26.92;;;19.75;;
58472;SDS011;44775;51.564;5.460;2022-08-23T06:12:27;39.88;;;22.08;;
58472;SDS011;44775;51.564;5.460;2022-08-23T06:14:55;42.50;;;22.33;;
58472;SDS011;44775;51.564;5.460;2022-08-23T06:17:21;33.95;;;23.50;;
58472;SDS011;44775;51.564;5.460;2022-08-23T06:19:47;27.98;;;22.60;;
58472;SDS011;44775;51.564;5.460;2022-08-23T06:22:13;29.67;;;24.05;;
58472;SDS011;44775;51.564;5.460;2022-08-23T06:24:38;36.35;;;23.95;;
58472;SDS011;44775;51.564;5.460;2022-08-23T06:27:04;33.35;;;23.33;;
58472;SDS011;44775;51.564;5.460;2022-08-23T06:29:29;28.42;;;23.35;;
58472;SDS011;44775;51.564;5.460;2022-08-23T06:31:55;25.02;;;22.20;;
58472;SDS011;44775;51.564;5.460;2022-08-23T06:34:25;25.20;;;22.25;;
58472;SDS011;44775;51.564;5.460;2022-08-23T06:36:57;29.45;;;21.88;;
58472;SDS011;44775;51.564;5.460;2022-08-23T06:39:27;30.38;;;22.27;;
58472;SDS011;44775;51.564;5.460;2022-08-23T06:41:59;28.70;;;22.35;;
58472;SDS011;44775;51.564;5.460;2022-08-23T06:44:29;32.20;;;23.83;;
58472;SDS011;44775;51.564;5.460;2022-08-23T06:46:56;31.40;;;24.83;;
58472;SDS011;44775;51.564;5.460;2022-08-23T06:49:23;30.63;;;24.52;;
58472;SDS011;44775;51.564;5.460;2022-08-23T06:51:50;30.27;;;24.38;;
58472;SDS011;44775;51.564;5.460;2022-08-23T06:54:19;29.35;;;24.50;;
58472;SDS011;44775;51.564;5.460;2022-08-23T06:56:47;30.63;;;24.70;;
58472;SDS011;44775;51.564;5.460;2022-08-23T06:59:13;30.30;;;25.25;;
58472;SDS011;44775;51.564;5.460;2022-08-23T07:01:47;29.42;;;21.50;;
58472;SDS011;44775;51.564;5.460;2022-08-23T07:04:17;28.17;;;22.98;;
58472;SDS011;44775;51.564;5.460;2022-08-23T07:06:44;33.90;;;25.98;;
58472;SDS011;44775;51.564;5.460;2022-08-23T07:09:10;27.58;;;23.40;;
58472;SDS011;44775;51.564;5.460;2022-08-23T07:11:37;28.98;;;19.40;;
58472;SDS011;44775;51.564;5.460;2022-08-23T07:14:04;24.77;;;21.27;;
58472;SDS011;44775;51.564;5.460;2022-08-23T07:16:35;23.73;;;20.20;;
58472;SDS011;44775;51.564;5.460;2022-08-23T07:19:04;25.45;;;19.77;;
58472;SDS011;44775;51.564;5.460;2022-08-23T07:21:30;22.35;;;18.25;;
58472;SDS011;44775;51.564;5.460;2022-08-23T07:23:56;22.70;;;15.88;;
58472;SDS011;44775;51.564;5.460;2022-08-23T07:26:22;22.33;;;16.10;;
58472;SDS011;44775;51.564;5.460;2022-08-23T07:28:48;21.65;;;16.08;;
58472;SDS011;44775;51.564;5.460;2022-08-23T07:31:15;17.90;;;14.27;;
58472;SDS011;44775;51.564;5.460;2022-08-23T07:33:43;19.40;;;13.90;;
58472;SDS011;44775;51.564;5.460;2022-08-23T07:36:11;18.25;;;13.88;;
58472;SDS011;44775;51.564;5.460;2022-08-23T07:38:40;19.38;;;13.65;;
58472;SDS011;44775;51.564;5.460;2022-08-23T07:41:07;18.77;;;13.88;;
58472;SDS011;44775;51.564;5.460;2022-08-23T07:43:32;20.98;;;13.30;;
58472;SDS011;44775;51.564;5.460;2022-08-23T07:45:58;17.50;;;13.43;;
58472;SDS011;44775;51.564;5.460;2022-08-23T07:48:25;19.40;;;12.98;;
58472;SDS011;44775;51.564;5.460;2022-08-23T07:50:54;19.13;;;13.23;;
58472;SDS011;44775;51.564;5.460;2022-08-23T07:53:23;19.17;;;12.38;;
58472;SDS011;44775;51.564;5.460;2022-08-23T07:55:49;18.10;;;12.50;;
58472;SDS011;44775;51.564;5.460;2022-08-23T07:58:16;16.15;;;11.23;;
58472;SDS011;44775;51.564;5.460;2022-08-23T08:00:42;14.90;;;11.70;;
58472;SDS011;44775;51.564;5.460;2022-08-23T08:03:08;16.38;;;11.38;;
58472;SDS011;44775;51.564;5.460;2022-08-23T08:05:35;16.52;;;11.50;;
58472;SDS011;44775;51.564;5.460;2022-08-23T08:08:01;15.68;;;10.95;;
58472;SDS011;44775;51.564;5.460;2022-08-23T08:10:28;18.30;;;11.47;;
58472;SDS011;44775;51.564;5.460;2022-08-23T08:12:54;21.40;;;10.98;;
58472;SDS011;44775;51.564;5.460;2022-08-23T08:15:20;18.85;;;11.55;;
58472;SDS011;44775;51.564;5.460;2022-08-23T08:17:47;16.42;;;11.88;;
58472;SDS011;44775;51.564;5.460;2022-08-23T08:20:13;15.32;;;11.40;;
58472;SDS011;44775;51.564;5.460;2022-08-23T08:22:39;17.88;;;11.43;;
58472;SDS011;44775;51.564;5.460;2022-08-23T08:25:06;17.55;;;10.77;;
58472;SDS011;44775;51.564;5.460;2022-08-23T08:27:33;23.53;;;11.33;;
58472;SDS011;44775;51.564;5.460;2022-08-23T08:29:58;16.58;;;10.80;;
58472;SDS011;44775;51.564;5.460;2022-08-23T08:32:24;17.77;;;11.85;;
58472;SDS011;44775;51.564;5.460;2022-08-23T08:34:49;17.48;;;11.60;;
58472;SDS011;44775;51.564;5.460;2022-08-23T08:37:15;15.45;;;10.80;;
58472;SDS011;44775;51.564;5.460;2022-08-23T08:39:40;19.92;;;11.65;;
58472;SDS011;44775;51.564;5.460;2022-08-23T08:47:01;17.27;;;10.57;;
58472;SDS011;44775;51.564;5.460;2022-08-23T08:49:48;16.05;;;9.95;;
58472;SDS011;44775;51.564;5.460;2022-08-23T08:54:56;12.43;;;8.18;;
58472;SDS011;44775;51.564;5.460;2022-08-23T08:57:27;16.35;;;9.15;;
58472;SDS011;44775;51.564;5.460;2022-08-23T09:00:04;13.27;;;8.52;;
58472;SDS011;44775;51.564;5.460;2022-08-23T09:02:31;10.63;;;7.65;;
58472;SDS011;44775;51.564;5.460;2022-08-23T09:05:03;14.15;;;7.60;;
58472;SDS011;44775;51.564;5.460;2022-08-23T09:15:59;13.18;;;7.47;;
58472;SDS011;44775;51.564;5.460;2022-08-23T09:18:35;11.07;;;7.03;;
58472;SDS011;44775;51.564;5.460;2022-08-23T09:21:02;11.60;;;5.50;;
58472;SDS011;44775;51.564;5.460;2022-08-23T09:23:32;11.38;;;5.13;;
58472;SDS011;44775;51.564;5.460;2022-08-23T09:26:14;7.68;;;4.30;;
58472;SDS011;44775;51.564;5.460;2022-08-23T09:28:51;11.05;;;5.70;;
58472;SDS011;44775;51.564;5.460;2022-08-23T09:31:41;8.55;;;4.50;;
58472;SDS011;44775;51.564;5.460;2022-08-23T09:36:39;9.32;;;3.83;;
58472;SDS011;44775;51.564;5.460;2022-08-23T09:39:06;8.55;;;4.38;;
58472;SDS011;44775;51.564;5.460;2022-08-23T09:41:34;12.77;;;5.10;;
58472;SDS011;44775;51.564;5.460;2022-08-23T09:44:03;18.60;;;5.47;;
58472;SDS011;44775;51.564;5.460;2022-08-23T09:46:32;10.95;;;4.53;;
58472;SDS011;44775;51.564;5.460;2022-08-23T09:49:23;10.43;;;4.50;;
58472;SDS011;44775;51.564;5.460;2022-08-23T09:51:50;12.90;;;5.07;;
58472;SDS011;44775;51.564;5.460;2022-08-23T09:54:20;8.80;;;4.07;;
58472;SDS011;44775;51.564;5.460;2022-08-23T09:56:52;8.57;;;3.60;;
58472;SDS011;44775;51.564;5.460;2022-08-23T10:01:49;6.80;;;2.80;;
58472;SDS011;44775;51.564;5.460;2022-08-23T10:04:20;9.27;;;3.40;;
58472;SDS011;44775;51.564;5.460;2022-08-23T10:07:19;7.88;;;3.00;;
58472;SDS011;44775;51.564;5.460;2022-08-23T10:09:51;10.65;;;2.58;;
58472;SDS011;44775;51.564;5.460;2022-08-23T10:12:18;5.55;;;2.30;;
58472;SDS011;44775;51.564;5.460;2022-08-23T10:14:43;6.68;;;2.60;;
58472;SDS011;44775;51.564;5.460;2022-08-23T10:30:56;6.18;;;2.53;;
58472;SDS011;44775;51.564;5.460;2022-08-23T10:33:57;6.10;;;2.97;;
58472;SDS011;44775;51.564;5.460;2022-08-23T10:36:53;5.85;;;2.55;;
58472;SDS011;44775;51.564;5.460;2022-08-23T10:39:28;6.28;;;2.70;;
58472;SDS011;44775;51.564;5.460;2022-08-23T10:42:00;7.93;;;2.78;;
58472;SDS011;44775;51.564;5.460;2022-08-23T10:50:07;5.88;;;1.83;;
58472;SDS011;44775;51.564;5.460;2022-08-23T10:52:39;9.77;;;2.15;;
58472;SDS011;44775;51.564;5.460;2022-08-23T10:55:14;6.43;;;2.10;;
58472;SDS011;44775;51.564;5.460;2022-08-23T10:57:59;7.35;;;2.50;;
58472;SDS011;44775;51.564;5.460;2022-08-23T11:00:27;5.60;;;2.05;;
58472;SDS011;44775;51.564;5.460;2022-08-23T11:17:07;5.70;;;2.05;;
58472;SDS011;44775;51.564;5.460;2022-08-23T11:19:52;5.45;;;1.70;;
58472;SDS011;44775;51.564;5.460;2022-08-23T11:22:23;6.95;;;1.63;;
58472;SDS011;44775;51.564;5.460;2022-08-23T11:24:53;4.47;;;1.63;;
58472;SDS011;44775;51.564;5.460;2022-08-23T11:27:28;7.35;;;1.73;;
58472;SDS011;44775;51.564;5.460;2022-08-23T11:29:55;5.95;;;1.30;;
58472;SDS011;44775;51.564;5.460;2022-08-23T11:35:11;5.57;;;1.70;;
58472;SDS011;44775;51.564;5.460;2022-08-23T11:37:56;8.23;;;1.90;;
58472;SDS011;44775;51.564;5.460;2022-08-23T11:43:07;8.20;;;1.90;;
58472;SDS011;44775;51.564;5.460;2022-08-23T11:48:20;4.50;;;1.85;;
58472;SDS011;44775;51.564;5.460;2022-08-23T11:57:18;7.35;;;1.77;;
58472;SDS011;44775;51.564;5.460;2022-08-23T12:03:05;7.72;;;1.90;;
58472;SDS011;44775;51.564;5.460;2022-08-23T12:08:31;4.88;;;1.60;;
58472;SDS011;44775;51.564;5.460;2022-08-23T12:10:58;4.47;;;1.90;;
58472;SDS011;44775;51.564;5.460;2022-08-23T12:13:32;2.70;;;1.52;;
58472;SDS011;44775;51.564;5.460;2022-08-23T12:23:58;7.68;;;1.80;;
58472;SDS011;44775;51.564;5.460;2022-08-23T12:32:04;4.32;;;1.75;;
58472;SDS011;44775;51.564;5.460;2022-08-23T12:40:06;3.35;;;1.20;;
58472;SDS011;44775;51.564;5.460;2022-08-23T12:42:36;3.38;;;1.40;;
58472;SDS011;44775;51.564;5.460;2022-08-23T12:47:40;3.97;;;1.50;;
58472;SDS011;44775;51.564;5.460;2022-08-23T12:52:37;5.13;;;1.30;;
58472;SDS011;44775;51.564;5.460;2022-08-23T12:55:11;4.30;;;0.95;;
58472;SDS011;44775;51.564;5.460;2022-08-23T12:57:39;3.65;;;1.02;;
58472;SDS011;44775;51.564;5.460;2022-08-23T13:02:40;3.90;;;1.10;;
58472;SDS011;44775;51.564;5.460;2022-08-23T13:05:12;3.78;;;1.40;;
58472;SDS011;44775;51.564;5.460;2022-08-23T13:07:48;5.00;;;1.40;;
58472;SDS011;44775;51.564;5.460;2022-08-23T13:10:15;3.33;;;1.20;;
58472;SDS011;44775;51.564;5.460;2022-08-23T13:12:41;3.30;;;1.38;;
58472;SDS011;44775;51.564;5.460;2022-08-23T13:15:08;2.60;;;1.17;;
58472;SDS011;44775;51.564;5.460;2022-08-23T13:17:35;2.92;;;1.35;;
58472;SDS011;44775;51.564;5.460;2022-08-23T13:22:35;4.15;;;1.23;;
58472;SDS011;44775;51.564;5.460;2022-08-23T13:25:06;3.17;;;1.42;;
58472;SDS011;44775;51.564;5.460;2022-08-23T13:27:35;2.28;;;1.20;;
58472;SDS011;44775;51.564;5.460;2022-08-23T13:38:20;2.33;;;0.93;;
58472;SDS011;44775;51.564;5.460;2022-08-23T13:43:54;2.22;;;1.00;;
58472;SDS011;44775;51.564;5.460;2022-08-23T13:46:22;6.35;;;1.25;;
58472;SDS011;44775;51.564;5.460;2022-08-23T13:48:58;4.22;;;1.10;;
58472;SDS011;44775;51.564;5.460;2022-08-23T13:54:00;5.20;;;1.10;;
58472;SDS011;44775;51.564;5.460;2022-08-23T13:56:32;6.85;;;1.15;;
58472;SDS011;44775;51.564;5.460;2022-08-23T13:59:02;5.45;;;1.05;;
58472;SDS011;44775;51.564;5.460;2022-08-23T14:01:48;3.15;;;1.05;;
58472;SDS011;44775;51.564;5.460;2022-08-23T14:04:14;2.83;;;1.10;;
58472;SDS011;44775;51.564;5.460;2022-08-23T14:06:40;3.58;;;1.00;;
58472;SDS011;44775;51.564;5.460;2022-08-23T14:09:05;1.40;;;0.93;;
58472;SDS011;44775;51.564;5.460;2022-08-23T14:11:31;2.95;;;1.02;;
58472;SDS011;44775;51.564;5.460;2022-08-23T14:13:57;2.22;;;1.08;;
58472;SDS011;44775;51.564;5.460;2022-08-23T14:16:25;3.17;;;0.90;;
58472;SDS011;44775;51.564;5.460;2022-08-23T14:18:54;5.38;;;1.00;;
58472;SDS011;44775;51.564;5.460;2022-08-23T14:21:20;4.07;;;1.10;;
58472;SDS011;44775;51.564;5.460;2022-08-23T14:23:45;2.67;;;0.90;;
58472;SDS011;44775;51.564;5.460;2022-08-23T14:26:12;2.83;;;1.25;;
58472;SDS011;44775;51.564;5.460;2022-08-23T14:28:41;5.35;;;1.25;;
58472;SDS011;44775;51.564;5.460;2022-08-23T14:31:08;2.70;;;1.00;;
58472;SDS011;44775;51.564;5.460;2022-08-23T14:33:34;2.90;;;0.98;;
58472;SDS011;44775;51.564;5.460;2022-08-23T14:36:00;2.88;;;1.20;;
58472;SDS011;44775;51.564;5.460;2022-08-23T14:38:26;3.30;;;0.90;;
58472;SDS011;44775;51.564;5.460;2022-08-23T14:40:54;2.33;;;1.00;;
58472;SDS011;44775;51.564;5.460;2022-08-23T14:43:23;3.55;;;1.20;;
58472;SDS011;44775;51.564;5.460;2022-08-23T14:45:49;5.05;;;1.10;;
58472;SDS011;44775;51.564;5.460;2022-08-23T14:48:14;4.22;;;1.10;;
58472;SDS011;44775;51.564;5.460;2022-08-23T14:50:41;2.92;;;1.10;;
58472;SDS011;44775;51.564;5.460;2022-08-23T14:53:07;1.60;;;0.90;;
58472;SDS011;44775;51.564;5.460;2022-08-23T14:55:34;3.13;;;1.20;;
58472;SDS011;44775;51.564;5.460;2022-08-23T14:58:00;4.60;;;1.20;;
58472;SDS011;44775;51.564;5.460;2022-08-23T15:00:26;2.92;;;0.93;;
58472;SDS011;44775;51.564;5.460;2022-08-23T15:02:52;2.70;;;1.00;;
58472;SDS011;44775;51.564;5.460;2022-08-23T15:05:17;3.72;;;1.05;;
58472;SDS011;44775;51.564;5.460;2022-08-23T15:07:43;4.43;;;1.10;;
58472;SDS011;44775;51.564;5.460;2022-08-23T15:10:09;2.17;;;1.00;;
58472;SDS011;44775;51.564;5.460;2022-08-23T15:12:37;3.15;;;1.02;;
58472;SDS011;44775;51.564;5.460;2022-08-23T15:15:03;3.38;;;1.10;;
58472;SDS011;44775;51.564;5.460;2022-08-23T15:17:34;4.40;;;0.90;;
58472;SDS011;44775;51.564;5.460;2022-08-23T15:20:00;4.85;;;0.90;;
58472;SDS011;44775;51.564;5.460;2022-08-23T15:22:26;4.07;;;1.10;;
58472;SDS011;44775;51.564;5.460;2022-08-23T15:24:52;6.43;;;1.20;;
58472;SDS011;44775;51.564;5.460;2022-08-23T15:27:17;4.40;;;1.30;;
58472;SDS011;44775;51.564;5.460;2022-08-23T15:29:44;4.53;;;1.40;;
58472;SDS011;44775;51.564;5.460;2022-08-23T15:32:09;2.17;;;0.90;;
58472;SDS011;44775;51.564;5.460;2022-08-23T15:34:35;2.42;;;0.93;;
58472;SDS011;44775;51.564;5.460;2022-08-23T15:37:00;3.85;;;0.85;;
58472;SDS011;44775;51.564;5.460;2022-08-23T15:39:26;2.35;;;1.08;;
58472;SDS011;44775;51.564;5.460;2022-08-23T15:41:51;4.95;;;0.73;;
58472;SDS011;44775;51.564;5.460;2022-08-23T15:44:17;2.05;;;0.90;;
58472;SDS011;44775;51.564;5.460;2022-08-23T15:46:44;3.72;;;0.90;;
58472;SDS011;44775;51.564;5.460;2022-08-23T15:49:11;2.20;;;0.80;;
58472;SDS011;44775;51.564;5.460;2022-08-23T15:51:38;3.22;;;0.82;;
58472;SDS011;44775;51.564;5.460;2022-08-23T15:54:05;2.45;;;0.82;;
58472;SDS011;44775;51.564;5.460;2022-08-23T15:56:36;2.72;;;0.80;;
58472;SDS011;44775;51.564;5.460;2022-08-23T15:59:06;2.55;;;0.75;;
58472;SDS011;44775;51.564;5.460;2022-08-23T16:01:37;1.88;;;0.55;;
58472;SDS011;44775;51.564;5.460;2022-08-23T16:04:03;1.48;;;0.70;;
58472;SDS011;44775;51.564;5.460;2022-08-23T16:06:29;3.33;;;0.80;;
58472;SDS011;44775;51.564;5.460;2022-08-23T16:08:54;4.00;;;0.80;;
58472;SDS011;44775;51.564;5.460;2022-08-23T16:11:21;3.20;;;0.80;;
58472;SDS011;44775;51.564;5.460;2022-08-23T16:13:47;2.33;;;0.80;;
58472;SDS011;44775;51.564;5.460;2022-08-23T16:16:20;1.77;;;0.93;;
58472;SDS011;44775;51.564;5.460;2022-08-23T16:18:58;2.15;;;0.82;;
58472;SDS011;44775;51.564;5.460;2022-08-23T16:21:25;3.13;;;0.90;;
58472;SDS011;44775;51.564;5.460;2022-08-23T16:23:53;2.60;;;0.90;;
58472;SDS011;44775;51.564;5.460;2022-08-23T16:26:21;3.20;;;0.90;;
58472;SDS011;44775;51.564;5.460;2022-08-23T16:28:50;4.60;;;0.95;;
58472;SDS011;44775;51.564;5.460;2022-08-23T16:31:17;3.90;;;1.00;;
58472;SDS011;44775;51.564;5.460;2022-08-23T16:33:43;3.67;;;1.58;;
58472;SDS011;44775;51.564;5.460;2022-08-23T16:36:09;2.40;;;1.27;;
58472;SDS011;44775;51.564;5.460;2022-08-23T16:38:35;3.17;;;0.80;;
58472;SDS011;44775;51.564;5.460;2022-08-23T16:41:02;4.30;;;1.33;;
58472;SDS011;44775;51.564;5.460;2022-08-23T16:43:27;3.10;;;1.15;;
58472;SDS011;44775;51.564;5.460;2022-08-23T16:45:53;1.88;;;1.30;;
58472;SDS011;44775;51.564;5.460;2022-08-23T16:48:18;3.03;;;1.20;;